createdAt,value
2019-03-17T00:00:00.421Z,73.364258
2019-03-17T00:00:12.057Z,73.22998
2019-03-17T00:00:23.805Z,72.753906
2019-03-17T00:00:35.548Z,72.515869
2019-03-17T00:00:47.437Z,72.546387
2019-03-17T00:00:59.221Z,72.241211
2019-03-17T00:01:12.178Z,72.003174
2019-03-17T00:01:22.712Z,72.106934
2019-03-17T00:01:34.479Z,72.20459
2019-03-17T00:01:56.836Z,72.106934
2019-03-17T00:01:58.960Z,72.106934
2019-03-17T00:02:10.722Z,72.20459
2019-03-17T00:02:22.483Z,72.515869
2019-03-17T00:02:34.289Z,72.613525
2019-03-17T00:02:46.065Z,72.821045
2019-03-17T00:02:57.822Z,73.028564
2019-03-17T00:03:09.593Z,72.924805
2019-03-17T00:03:21.359Z,72.717285
2019-03-17T00:03:33.125Z,72.515869
2019-03-17T00:03:44.912Z,72.717285
2019-03-17T00:03:56.670Z,72.821045
2019-03-17T00:04:08.418Z,72.821045
2019-03-17T00:04:30.853Z,72.717285
2019-03-17T00:04:32.958Z,72.717285
2019-03-17T00:04:44.715Z,72.753906
2019-03-17T00:04:56.541Z,72.924805
2019-03-17T00:05:08.327Z,73.059082
2019-03-17T00:05:20.078Z,73.162842
2019-03-17T00:05:31.848Z,73.059082
2019-03-17T00:05:43.754Z,72.753906
2019-03-17T00:05:55.497Z,72.241211
2019-03-17T00:06:07.897Z,72.241211
2019-03-17T00:06:19.085Z,72.241211
2019-03-17T00:06:30.854Z,72.20459
2019-03-17T00:06:42.597Z,72.003174
2019-03-17T00:06:54.357Z,71.899414
2019-03-17T00:07:06.101Z,72.106934
2019-03-17T00:07:17.882Z,72.30835
2019-03-17T00:07:29.669Z,72.20459
2019-03-17T00:07:41.423Z,72.20459
2019-03-17T00:07:53.212Z,72.412109
2019-03-17T00:08:04.989Z,72.412109
2019-03-17T00:08:16.738Z,72.30835
2019-03-17T00:08:28.491Z,72.30835
2019-03-17T00:08:40.250Z,72.613525
2019-03-17T00:08:52.026Z,72.821045
2019-03-17T00:09:03.804Z,72.821045
2019-03-17T00:09:15.608Z,72.515869
2019-03-17T00:09:27.373Z,72.515869
2019-03-17T00:09:39.165Z,72.412109
2019-03-17T00:09:50.939Z,72.344971
2019-03-17T00:10:02.710Z,72.515869
2019-03-17T00:10:14.466Z,72.717285
2019-03-17T00:10:26.231Z,72.753906
2019-03-17T00:10:37.992Z,72.546387
2019-03-17T00:10:52.471Z,72.442627
2019-03-17T00:11:01.580Z,72.442627
2019-03-17T00:11:13.334Z,72.20459
2019-03-17T00:11:25.102Z,72.241211
2019-03-17T00:11:36.872Z,72.344971
2019-03-17T00:11:48.658Z,72.344971
2019-03-17T00:12:00.442Z,72.442627
2019-03-17T00:12:12.222Z,72.344971
2019-03-17T00:12:24.000Z,72.442627
2019-03-17T00:12:35.774Z,72.650146
2019-03-17T00:12:47.515Z,72.650146
2019-03-17T00:12:59.306Z,72.137451
2019-03-17T00:13:11.059Z,71.832275
2019-03-17T00:13:22.813Z,71.832275
2019-03-17T00:13:34.575Z,71.832275
2019-03-17T00:13:46.373Z,71.929932
2019-03-17T00:13:58.127Z,72.137451
2019-03-17T00:14:09.900Z,72.241211
2019-03-17T00:14:21.679Z,72.241211
2019-03-17T00:14:33.458Z,72.241211
2019-03-17T00:14:45.258Z,72.106934
2019-03-17T00:15:04.911Z,71.832275
2019-03-17T00:15:09.727Z,71.929932
2019-03-17T00:15:21.483Z,71.899414
2019-03-17T00:15:33.286Z,71.899414
2019-03-17T00:15:45.034Z,72.137451
2019-03-17T00:15:56.832Z,72.442627
2019-03-17T00:16:08.606Z,72.546387
2019-03-17T00:16:20.387Z,72.344971
2019-03-17T00:16:32.140Z,72.137451
2019-03-17T00:16:43.920Z,72.241211
2019-03-17T00:16:55.705Z,72.442627
2019-03-17T00:17:07.480Z,72.442627
2019-03-17T00:17:19.229Z,72.442627
2019-03-17T00:17:31.001Z,72.442627
2019-03-17T00:17:43.756Z,72.650146
2019-03-17T00:17:55.512Z,72.546387
2019-03-17T00:18:07.272Z,72.241211
2019-03-17T00:18:19.071Z,72.033691
2019-03-17T00:18:30.855Z,72.033691
2019-03-17T00:18:42.621Z,72.137451
2019-03-17T00:18:54.369Z,71.929932
2019-03-17T00:19:06.170Z,71.728516
2019-03-17T00:19:17.949Z,71.417236
2019-03-17T00:19:30.690Z,71.417236
2019-03-17T00:19:42.468Z,71.31958
2019-03-17T00:19:54.235Z,71.31958
2019-03-17T00:20:05.995Z,71.490479
2019-03-17T00:20:17.761Z,71.386719
2019-03-17T00:20:29.523Z,71.081543
2019-03-17T00:20:41.330Z,70.977783
2019-03-17T00:20:53.095Z,71.081543
2019-03-17T00:21:04.853Z,71.081543
2019-03-17T00:21:16.682Z,70.874023
2019-03-17T00:21:28.477Z,70.977783
2019-03-17T00:21:40.208Z,71.386719
2019-03-17T00:21:51.982Z,71.490479
2019-03-17T00:22:03.748Z,71.490479
2019-03-17T00:22:15.491Z,71.490479
2019-03-17T00:22:27.262Z,71.282959
2019-03-17T00:22:39.035Z,71.386719
2019-03-17T00:22:50.787Z,71.594238
2019-03-17T00:23:02.550Z,71.490479
2019-03-17T00:23:14.331Z,71.282959
2019-03-17T00:23:26.098Z,71.081543
2019-03-17T00:23:37.872Z,71.179199
2019-03-17T00:23:49.651Z,71.282959
2019-03-17T00:24:01.434Z,71.282959
2019-03-17T00:24:13.197Z,71.179199
2019-03-17T00:24:24.989Z,71.081543
2019-03-17T00:24:36.761Z,70.568848
2019-03-17T00:24:48.521Z,70.465088
2019-03-17T00:25:08.820Z,70.465088
2019-03-17T00:25:13.011Z,70.672607
2019-03-17T00:25:24.787Z,70.874023
2019-03-17T00:25:36.529Z,70.770264
2019-03-17T00:25:48.325Z,70.672607
2019-03-17T00:26:00.080Z,70.672607
2019-03-17T00:26:11.859Z,70.672607
2019-03-17T00:26:23.613Z,70.770264
2019-03-17T00:26:35.378Z,70.770264
2019-03-17T00:26:47.169Z,70.568848
2019-03-17T00:26:58.937Z,70.361328
2019-03-17T00:27:10.706Z,70.672607
2019-03-17T00:27:22.466Z,70.770264
2019-03-17T00:27:34.221Z,70.977783
2019-03-17T00:27:45.983Z,70.874023
2019-03-17T00:27:57.754Z,70.874023
2019-03-17T00:28:09.519Z,70.977783
2019-03-17T00:28:21.283Z,71.179199
2019-03-17T00:28:33.064Z,71.386719
2019-03-17T00:28:45.814Z,71.282959
2019-03-17T00:28:57.588Z,71.282959
2019-03-17T00:29:09.354Z,71.179199
2019-03-17T00:29:21.130Z,71.490479
2019-03-17T00:29:32.887Z,71.594238
2019-03-17T00:29:44.654Z,71.691895
2019-03-17T00:29:56.412Z,71.594238
2019-03-17T00:30:08.207Z,71.594238
2019-03-17T00:30:19.950Z,71.594238
2019-03-17T00:30:31.753Z,71.490479
2019-03-17T00:30:43.487Z,71.490479
2019-03-17T00:30:55.245Z,71.490479
2019-03-17T00:31:07.041Z,71.490479
2019-03-17T00:31:24.022Z,71.594238
2019-03-17T00:31:31.540Z,71.795654
2019-03-17T00:31:43.303Z,71.795654
2019-03-17T00:31:55.066Z,71.490479
2019-03-17T00:32:06.860Z,71.594238
2019-03-17T00:32:18.607Z,71.795654
2019-03-17T00:32:30.372Z,72.003174
2019-03-17T00:32:42.131Z,71.899414
2019-03-17T00:32:53.886Z,71.594238
2019-03-17T00:33:05.633Z,71.691895
2019-03-17T00:33:17.383Z,71.899414
2019-03-17T00:33:29.157Z,72.106934
2019-03-17T00:33:40.876Z,72.20459
2019-03-17T00:33:52.641Z,72.30835
2019-03-17T00:34:04.414Z,72.412109
2019-03-17T00:34:16.194Z,72.515869
2019-03-17T00:34:27.991Z,72.515869
2019-03-17T00:34:44.250Z,72.515869
2019-03-17T00:34:53.449Z,72.515869
2019-03-17T00:35:11.091Z,72.613525
2019-03-17T00:35:22.871Z,72.821045
2019-03-17T00:35:34.617Z,73.028564
2019-03-17T00:35:46.379Z,72.821045
2019-03-17T00:35:58.154Z,72.442627
2019-03-17T00:36:09.945Z,72.137451
2019-03-17T00:36:21.693Z,71.691895
2019-03-17T00:36:33.519Z,71.691895
2019-03-17T00:36:45.273Z,71.691895
2019-03-17T00:36:57.049Z,71.795654
2019-03-17T00:37:08.826Z,71.899414
2019-03-17T00:37:20.598Z,72.003174
2019-03-17T00:37:32.386Z,72.106934
2019-03-17T00:37:44.134Z,72.003174
2019-03-17T00:37:55.870Z,71.899414
2019-03-17T00:38:07.639Z,72.003174
2019-03-17T00:38:19.395Z,72.106934
2019-03-17T00:38:31.181Z,72.20459
2019-03-17T00:38:42.978Z,72.106934
2019-03-17T00:38:54.721Z,72.106934
2019-03-17T00:39:06.499Z,72.106934
2019-03-17T00:39:18.246Z,72.003174
2019-03-17T00:39:29.998Z,72.20459
2019-03-17T00:39:41.780Z,72.20459
2019-03-17T00:39:53.531Z,72.30835
2019-03-17T00:40:05.310Z,72.30835
2019-03-17T00:40:17.078Z,72.20459
2019-03-17T00:40:28.825Z,72.003174
2019-03-17T00:40:40.596Z,71.899414
2019-03-17T00:40:52.350Z,71.386719
2019-03-17T00:41:04.136Z,71.386719
2019-03-17T00:41:15.899Z,71.490479
2019-03-17T00:41:27.665Z,71.691895
2019-03-17T00:41:39.452Z,71.899414
2019-03-17T00:41:51.205Z,72.106934
2019-03-17T00:42:02.971Z,72.412109
2019-03-17T00:42:14.726Z,72.515869
2019-03-17T00:42:26.520Z,72.30835
2019-03-17T00:42:38.252Z,72.412109
2019-03-17T00:42:50.022Z,72.515869
2019-03-17T00:43:01.767Z,72.412109
2019-03-17T00:43:13.536Z,72.412109
2019-03-17T00:43:25.357Z,72.515869
2019-03-17T00:43:37.171Z,72.412109
2019-03-17T00:43:48.926Z,72.106934
2019-03-17T00:44:00.718Z,72.106934
2019-03-17T00:44:12.465Z,72.003174
2019-03-17T00:44:24.237Z,71.899414
2019-03-17T00:44:36.034Z,72.003174
2019-03-17T00:44:47.796Z,72.106934
2019-03-17T00:44:59.559Z,72.003174
2019-03-17T00:45:11.819Z,71.795654
2019-03-17T00:45:23.046Z,71.594238
2019-03-17T00:45:34.832Z,71.594238
2019-03-17T00:45:46.615Z,71.594238
2019-03-17T00:45:58.382Z,71.795654
2019-03-17T00:46:10.166Z,71.691895
2019-03-17T00:46:21.945Z,71.490479
2019-03-17T00:46:33.735Z,71.691895
2019-03-17T00:46:45.497Z,72.003174
2019-03-17T00:46:57.277Z,72.20459
2019-03-17T00:47:10.696Z,72.20459
2019-03-17T00:47:20.828Z,72.30835
2019-03-17T00:47:32.598Z,72.20459
2019-03-17T00:47:44.389Z,72.30835
2019-03-17T00:47:56.168Z,72.106934
2019-03-17T00:48:07.942Z,71.899414
2019-03-17T00:48:19.694Z,71.795654
2019-03-17T00:48:31.499Z,71.899414
2019-03-17T00:48:43.240Z,72.30835
2019-03-17T00:48:54.988Z,72.515869
2019-03-17T00:49:06.732Z,72.717285
2019-03-17T00:49:18.512Z,72.515869
2019-03-17T00:49:30.272Z,72.30835
2019-03-17T00:49:42.019Z,72.106934
2019-03-17T00:49:53.767Z,72.003174
2019-03-17T00:50:05.520Z,72.003174
2019-03-17T00:50:17.257Z,72.106934
2019-03-17T00:50:29.016Z,72.20459
2019-03-17T00:50:40.789Z,72.30835
2019-03-17T00:50:52.548Z,72.20459
2019-03-17T00:51:04.299Z,72.003174
2019-03-17T00:51:16.053Z,71.899414
2019-03-17T00:51:27.818Z,72.003174
2019-03-17T00:51:39.576Z,72.20459
2019-03-17T00:51:51.359Z,72.412109
2019-03-17T00:52:03.118Z,72.30835
2019-03-17T00:52:14.968Z,72.003174
2019-03-17T00:52:26.683Z,71.795654
2019-03-17T00:52:38.487Z,71.899414
2019-03-17T00:52:50.287Z,72.003174
2019-03-17T00:53:02.068Z,72.106934
2019-03-17T00:53:13.887Z,72.106934
2019-03-17T00:53:25.731Z,72.20459
2019-03-17T00:53:37.491Z,72.412109
2019-03-17T00:53:49.273Z,72.30835
2019-03-17T00:54:01.021Z,72.20459
2019-03-17T00:54:12.789Z,72.20459
2019-03-17T00:54:24.586Z,72.20459
2019-03-17T00:54:36.349Z,72.20459
2019-03-17T00:54:48.102Z,71.899414
2019-03-17T00:54:59.882Z,72.003174
2019-03-17T00:55:11.642Z,72.003174
2019-03-17T00:55:23.419Z,72.003174
2019-03-17T00:55:35.194Z,72.20459
2019-03-17T00:55:47.074Z,72.20459
2019-03-17T00:55:58.764Z,72.106934
2019-03-17T00:56:10.541Z,72.106934
2019-03-17T00:56:22.319Z,72.20459
2019-03-17T00:56:34.061Z,72.20459
2019-03-17T00:56:46.829Z,72.412109
2019-03-17T00:56:58.608Z,72.515869
2019-03-17T00:57:10.389Z,72.412109
2019-03-17T00:57:22.158Z,72.20459
2019-03-17T00:57:33.940Z,72.106934
2019-03-17T00:57:45.680Z,72.20459
2019-03-17T00:57:59.552Z,72.412109
2019-03-17T00:58:09.231Z,72.613525
2019-03-17T00:58:20.977Z,72.821045
2019-03-17T00:58:32.809Z,72.821045
2019-03-17T00:58:44.644Z,72.613525
2019-03-17T00:58:56.338Z,72.613525
2019-03-17T00:59:08.088Z,72.613525
2019-03-17T00:59:19.856Z,72.412109
2019-03-17T00:59:31.612Z,72.515869
2019-03-17T00:59:43.389Z,72.515869
2019-03-17T00:59:55.127Z,72.515869
2019-03-17T01:00:06.887Z,72.821045
2019-03-17T01:00:18.644Z,72.924805
2019-03-17T01:00:30.405Z,73.126221
2019-03-17T01:00:42.156Z,73.126221
2019-03-17T01:00:53.913Z,72.924805
2019-03-17T01:01:05.684Z,72.821045
2019-03-17T01:01:17.430Z,72.717285
2019-03-17T01:01:29.195Z,72.717285
2019-03-17T01:01:40.980Z,72.924805
2019-03-17T01:01:52.713Z,72.857666
2019-03-17T01:02:04.470Z,72.613525
2019-03-17T01:02:16.221Z,72.546387
2019-03-17T01:02:28.006Z,72.613525
2019-03-17T01:02:39.763Z,72.717285
2019-03-17T01:02:51.538Z,72.857666
2019-03-17T01:03:03.324Z,72.857666
2019-03-17T01:03:15.089Z,72.821045
2019-03-17T01:03:26.895Z,72.753906
2019-03-17T01:03:38.665Z,72.613525
2019-03-17T01:03:50.454Z,72.717285
2019-03-17T01:04:02.212Z,72.717285
2019-03-17T01:04:13.984Z,72.753906
2019-03-17T01:04:25.759Z,72.717285
2019-03-17T01:04:37.500Z,73.028564
2019-03-17T01:04:55.948Z,73.126221
2019-03-17T01:05:01.991Z,73.162842
2019-03-17T01:05:13.806Z,73.364258
2019-03-17T01:05:25.570Z,73.364258
2019-03-17T01:05:37.326Z,73.266602
2019-03-17T01:05:49.122Z,73.364258
2019-03-17T01:06:00.889Z,73.364258
2019-03-17T01:06:12.650Z,73.364258
2019-03-17T01:06:24.407Z,73.059082
2019-03-17T01:06:36.167Z,72.955322
2019-03-17T01:06:47.956Z,72.955322
2019-03-17T01:06:59.733Z,72.955322
2019-03-17T01:07:11.504Z,72.955322
2019-03-17T01:07:23.321Z,72.955322
2019-03-17T01:07:35.035Z,73.059082
2019-03-17T01:07:46.791Z,73.162842
2019-03-17T01:07:58.524Z,73.364258
2019-03-17T01:08:10.274Z,73.162842
2019-03-17T01:08:22.042Z,72.955322
2019-03-17T01:08:33.827Z,72.955322
2019-03-17T01:08:45.606Z,73.162842
2019-03-17T01:08:57.383Z,73.162842
2019-03-17T01:09:09.170Z,73.059082
2019-03-17T01:09:20.935Z,73.162842
2019-03-17T01:09:32.741Z,73.364258
2019-03-17T01:09:44.521Z,73.266602
2019-03-17T01:09:56.280Z,73.266602
2019-03-17T01:10:08.029Z,73.364258
2019-03-17T01:10:19.856Z,73.468018
2019-03-17T01:10:31.628Z,73.675537
2019-03-17T01:10:43.406Z,73.675537
2019-03-17T01:10:55.159Z,73.675537
2019-03-17T01:11:06.957Z,73.675537
2019-03-17T01:11:18.739Z,73.468018
2019-03-17T01:11:30.492Z,73.468018
2019-03-17T01:11:42.256Z,73.468018
2019-03-17T01:11:54.057Z,73.468018
2019-03-17T01:12:06.789Z,73.571777
2019-03-17T01:12:18.537Z,73.876953
2019-03-17T01:12:30.325Z,73.980713
2019-03-17T01:12:44.675Z,74.188232
2019-03-17T01:12:53.845Z,74.291992
2019-03-17T01:13:05.614Z,74.188232
2019-03-17T01:13:17.376Z,74.084473
2019-03-17T01:13:29.174Z,74.084473
2019-03-17T01:13:40.947Z,74.084473
2019-03-17T01:13:52.739Z,74.188232
2019-03-17T01:14:04.506Z,74.291992
2019-03-17T01:14:16.292Z,74.291992
2019-03-17T01:14:28.059Z,74.389648
2019-03-17T01:14:39.859Z,74.493408
2019-03-17T01:14:51.653Z,74.493408
2019-03-17T01:15:03.402Z,74.493408
2019-03-17T01:15:15.192Z,74.700928
2019-03-17T01:15:26.952Z,74.389648
2019-03-17T01:15:38.700Z,74.188232
2019-03-17T01:15:50.495Z,74.291992
2019-03-17T01:16:02.249Z,74.291992
2019-03-17T01:16:14.011Z,74.188232
2019-03-17T01:16:25.774Z,74.291992
2019-03-17T01:16:37.526Z,74.291992
2019-03-17T01:16:49.271Z,74.291992
2019-03-17T01:17:01.066Z,73.980713
2019-03-17T01:17:12.832Z,73.980713
2019-03-17T01:17:24.624Z,73.980713
2019-03-17T01:17:36.413Z,74.188232
2019-03-17T01:17:48.187Z,74.084473
2019-03-17T01:17:59.941Z,73.779297
2019-03-17T01:18:11.711Z,73.980713
2019-03-17T01:18:23.490Z,74.084473
2019-03-17T01:18:35.277Z,74.188232
2019-03-17T01:18:47.057Z,74.291992
2019-03-17T01:18:58.828Z,74.084473
2019-03-17T01:19:10.574Z,73.980713
2019-03-17T01:19:22.351Z,74.084473
2019-03-17T01:19:34.103Z,73.980713
2019-03-17T01:19:45.910Z,74.084473
2019-03-17T01:19:57.816Z,74.188232
2019-03-17T01:20:09.582Z,74.084473
2019-03-17T01:20:21.360Z,74.084473
2019-03-17T01:20:33.115Z,73.779297
2019-03-17T01:20:44.906Z,73.779297
2019-03-17T01:20:56.684Z,73.980713
2019-03-17T01:21:08.442Z,74.084473
2019-03-17T01:21:21.203Z,73.980713
2019-03-17T01:21:32.949Z,73.779297
2019-03-17T01:21:44.733Z,73.779297
2019-03-17T01:21:56.509Z,73.980713
2019-03-17T01:22:08.255Z,74.084473
2019-03-17T01:22:20.029Z,73.779297
2019-03-17T01:22:31.800Z,73.675537
2019-03-17T01:22:43.579Z,73.876953
2019-03-17T01:22:55.348Z,73.876953
2019-03-17T01:23:07.147Z,73.980713
2019-03-17T01:23:18.904Z,73.980713
2019-03-17T01:23:30.732Z,73.779297
2019-03-17T01:23:42.430Z,73.980713
2019-03-17T01:23:54.211Z,74.084473
2019-03-17T01:24:05.971Z,74.084473
2019-03-17T01:24:17.718Z,74.389648
2019-03-17T01:24:29.462Z,74.493408
2019-03-17T01:24:41.206Z,74.389648
2019-03-17T01:24:52.992Z,74.188232
2019-03-17T01:25:04.756Z,73.876953
2019-03-17T01:25:16.519Z,73.779297
2019-03-17T01:25:28.306Z,73.980713
2019-03-17T01:25:40.084Z,74.188232
2019-03-17T01:25:51.849Z,74.291992
2019-03-17T01:26:03.622Z,74.188232
2019-03-17T01:26:15.392Z,74.188232
2019-03-17T01:26:27.161Z,74.291992
2019-03-17T01:26:38.920Z,74.493408
2019-03-17T01:26:50.703Z,74.597168
2019-03-17T01:27:02.512Z,74.597168
2019-03-17T01:27:14.254Z,74.700928
2019-03-17T01:27:26.017Z,74.804688
2019-03-17T01:27:37.807Z,74.700928
2019-03-17T01:27:49.600Z,74.597168
2019-03-17T01:28:01.360Z,74.804688
2019-03-17T01:28:13.160Z,74.804688
2019-03-17T01:28:24.909Z,74.597168
2019-03-17T01:28:36.674Z,74.597168
2019-03-17T01:28:48.454Z,74.700928
2019-03-17T01:29:00.238Z,74.597168
2019-03-17T01:29:12.050Z,74.493408
2019-03-17T01:29:23.791Z,74.493408
2019-03-17T01:29:35.544Z,74.389648
2019-03-17T01:29:47.305Z,74.493408
2019-03-17T01:30:00.159Z,74.597168
2019-03-17T01:30:11.830Z,74.902344
2019-03-17T01:30:23.610Z,74.804688
2019-03-17T01:30:35.361Z,74.902344
2019-03-17T01:30:47.157Z,75.006104
2019-03-17T01:30:58.932Z,75.109863
2019-03-17T01:31:10.732Z,75.006104
2019-03-17T01:31:22.525Z,75.006104
2019-03-17T01:31:34.303Z,75.109863
2019-03-17T01:31:46.093Z,75.213623
2019-03-17T01:31:57.849Z,75.311279
2019-03-17T01:32:09.595Z,75.311279
2019-03-17T01:32:21.369Z,75.213623
2019-03-17T01:32:33.124Z,75.213623
2019-03-17T01:32:44.924Z,75.213623
2019-03-17T01:32:56.694Z,75.311279
2019-03-17T01:33:08.453Z,75.311279
2019-03-17T01:33:20.226Z,75.109863
2019-03-17T01:33:31.988Z,74.804688
2019-03-17T01:33:43.754Z,74.700928
2019-03-17T01:33:55.505Z,74.804688
2019-03-17T01:34:07.260Z,74.902344
2019-03-17T01:34:19.000Z,75.006104
2019-03-17T01:34:30.773Z,75.109863
2019-03-17T01:34:42.517Z,75.311279
2019-03-17T01:34:54.253Z,75.311279
2019-03-17T01:35:09.384Z,75.109863
2019-03-17T01:35:18.709Z,75.006104
2019-03-17T01:35:32.615Z,74.902344
2019-03-17T01:35:42.259Z,74.804688
2019-03-17T01:35:54.043Z,74.804688
2019-03-17T01:36:05.859Z,74.902344
2019-03-17T01:36:17.601Z,74.804688
2019-03-17T01:36:29.366Z,74.700928
2019-03-17T01:36:41.129Z,74.700928
2019-03-17T01:36:52.896Z,74.804688
2019-03-17T01:37:04.653Z,74.804688
2019-03-17T01:37:16.414Z,74.804688
2019-03-17T01:37:28.177Z,74.804688
2019-03-17T01:37:39.943Z,74.804688
2019-03-17T01:37:51.699Z,74.700928
2019-03-17T01:38:03.448Z,74.700928
2019-03-17T01:38:15.217Z,74.902344
2019-03-17T01:38:26.965Z,75.006104
2019-03-17T01:38:38.764Z,74.804688
2019-03-17T01:38:50.546Z,74.804688
2019-03-17T01:39:02.301Z,74.902344
2019-03-17T01:39:14.087Z,75.006104
2019-03-17T01:39:25.864Z,74.902344
2019-03-17T01:39:37.617Z,74.804688
2019-03-17T01:39:49.395Z,74.902344
2019-03-17T01:40:01.193Z,75.109863
2019-03-17T01:40:12.950Z,74.902344
2019-03-17T01:40:24.702Z,74.597168
2019-03-17T01:40:36.477Z,74.597168
2019-03-17T01:40:48.249Z,74.700928
2019-03-17T01:41:00.176Z,74.902344
2019-03-17T01:41:11.962Z,75.006104
2019-03-17T01:41:23.707Z,74.902344
2019-03-17T01:41:35.476Z,74.902344
2019-03-17T01:41:47.246Z,75.109863
2019-03-17T01:41:59.008Z,75.109863
2019-03-17T01:42:10.765Z,75.213623
2019-03-17T01:42:22.504Z,75.109863
2019-03-17T01:42:34.297Z,75.109863
2019-03-17T01:42:46.028Z,75.006104
2019-03-17T01:42:57.796Z,75.006104
2019-03-17T01:43:09.584Z,75.006104
2019-03-17T01:43:21.359Z,75.006104
2019-03-17T01:43:33.124Z,75.109863
2019-03-17T01:43:44.905Z,75.109863
2019-03-17T01:43:56.667Z,75.109863
2019-03-17T01:44:08.419Z,75.213623
2019-03-17T01:44:20.174Z,75.311279
2019-03-17T01:44:31.940Z,75.311279
2019-03-17T01:44:43.695Z,75.311279
2019-03-17T01:44:55.458Z,75.415039
2019-03-17T01:45:07.227Z,75.622559
2019-03-17T01:45:18.980Z,75.927734
2019-03-17T01:45:30.722Z,75.927734
2019-03-17T01:45:42.496Z,75.927734
2019-03-17T01:45:54.235Z,75.726318
2019-03-17T01:46:06.007Z,75.622559
2019-03-17T01:46:17.761Z,75.518799
2019-03-17T01:46:29.553Z,75.518799
2019-03-17T01:46:41.339Z,75.726318
2019-03-17T01:46:53.092Z,75.823975
2019-03-17T01:47:04.875Z,75.823975
2019-03-17T01:47:16.634Z,75.860596
2019-03-17T01:47:29.412Z,75.823975
2019-03-17T01:47:41.181Z,75.756836
2019-03-17T01:47:52.923Z,75.860596
2019-03-17T01:48:04.683Z,75.756836
2019-03-17T01:48:16.453Z,75.55542
2019-03-17T01:48:28.208Z,75.244141
2019-03-17T01:48:39.976Z,75.213623
2019-03-17T01:48:51.750Z,75.109863
2019-03-17T01:49:03.522Z,75.213623
2019-03-17T01:49:15.272Z,75.311279
2019-03-17T01:49:27.019Z,75.518799
2019-03-17T01:49:38.774Z,75.415039
2019-03-17T01:49:50.531Z,75.415039
2019-03-17T01:50:02.280Z,75.415039
2019-03-17T01:50:14.052Z,75.415039
2019-03-17T01:50:25.820Z,75.518799
2019-03-17T01:50:37.603Z,75.622559
2019-03-17T01:50:49.355Z,75.726318
2019-03-17T01:51:01.147Z,75.823975
2019-03-17T01:51:12.910Z,75.518799
2019-03-17T01:51:24.684Z,75.518799
2019-03-17T01:51:36.505Z,75.518799
2019-03-17T01:51:48.248Z,75.415039
2019-03-17T01:52:00.004Z,75.415039
2019-03-17T01:52:11.811Z,75.415039
2019-03-17T01:52:23.591Z,75.518799
2019-03-17T01:52:35.374Z,75.622559
2019-03-17T01:52:47.140Z,75.726318
2019-03-17T01:52:58.911Z,75.823975
2019-03-17T01:53:10.651Z,75.823975
2019-03-17T01:53:22.410Z,76.031494
2019-03-17T01:53:34.198Z,76.031494
2019-03-17T01:53:45.963Z,76.068115
2019-03-17T01:53:57.724Z,76.031494
2019-03-17T01:54:09.512Z,76.171875
2019-03-17T01:54:21.256Z,76.171875
2019-03-17T01:54:33.012Z,76.171875
2019-03-17T01:54:44.759Z,76.269531
2019-03-17T01:54:56.539Z,76.269531
2019-03-17T01:55:08.299Z,76.171875
2019-03-17T01:55:20.056Z,75.860596
2019-03-17T01:55:31.843Z,75.65918
2019-03-17T01:55:43.591Z,75.756836
2019-03-17T01:55:55.362Z,75.860596
2019-03-17T01:56:07.115Z,76.068115
2019-03-17T01:56:18.896Z,76.171875
2019-03-17T01:56:30.630Z,76.269531
2019-03-17T01:56:42.395Z,76.373291
2019-03-17T01:56:54.155Z,76.477051
2019-03-17T01:57:05.897Z,76.477051
2019-03-17T01:57:17.749Z,76.580811
2019-03-17T01:57:29.515Z,76.68457
2019-03-17T01:57:41.286Z,76.68457
2019-03-17T01:57:53.064Z,76.68457
2019-03-17T01:58:04.800Z,76.68457
2019-03-17T01:58:16.542Z,76.782227
2019-03-17T01:58:28.337Z,76.68457
2019-03-17T01:58:40.113Z,76.68457
2019-03-17T01:58:51.876Z,76.580811
2019-03-17T01:59:03.663Z,76.477051
2019-03-17T01:59:15.439Z,76.171875
2019-03-17T01:59:27.219Z,75.964355
2019-03-17T01:59:38.952Z,75.964355
2019-03-17T01:59:50.703Z,76.068115
2019-03-17T02:00:02.463Z,76.269531
2019-03-17T02:00:14.234Z,76.269531
2019-03-17T02:00:25.979Z,76.269531
2019-03-17T02:00:37.734Z,76.269531
2019-03-17T02:00:49.476Z,76.068115
2019-03-17T02:01:01.251Z,76.068115
2019-03-17T02:01:13.998Z,76.068115
2019-03-17T02:01:25.785Z,76.171875
2019-03-17T02:01:37.517Z,76.068115
2019-03-17T02:01:49.311Z,76.171875
2019-03-17T02:02:01.070Z,76.171875
2019-03-17T02:02:12.964Z,76.373291
2019-03-17T02:02:24.738Z,76.477051
2019-03-17T02:02:36.520Z,76.580811
2019-03-17T02:02:48.323Z,76.580811
2019-03-17T02:03:00.093Z,76.580811
2019-03-17T02:03:11.839Z,76.269531
2019-03-17T02:03:23.634Z,76.373291
2019-03-17T02:03:35.419Z,76.477051
2019-03-17T02:03:47.170Z,76.373291
2019-03-17T02:03:59.029Z,76.269531
2019-03-17T02:04:10.742Z,76.373291
2019-03-17T02:04:22.511Z,76.373291
2019-03-17T02:04:34.300Z,76.477051
2019-03-17T02:04:46.091Z,76.68457
2019-03-17T02:04:57.879Z,76.782227
2019-03-17T02:05:21.181Z,76.68457
2019-03-17T02:05:22.684Z,76.580811
2019-03-17T02:05:34.099Z,76.580811
2019-03-17T02:05:45.830Z,76.68457
2019-03-17T02:05:57.610Z,76.782227
2019-03-17T02:06:09.371Z,76.782227
2019-03-17T02:06:21.118Z,76.885986
2019-03-17T02:06:32.902Z,76.989746
2019-03-17T02:06:44.677Z,77.197266
2019-03-17T02:06:56.439Z,77.197266
2019-03-17T02:07:08.185Z,77.093506
2019-03-17T02:07:19.972Z,77.093506
2019-03-17T02:07:31.742Z,76.989746
2019-03-17T02:07:43.528Z,76.989746
2019-03-17T02:07:55.304Z,76.989746
2019-03-17T02:08:07.081Z,76.989746
2019-03-17T02:08:18.822Z,76.989746
2019-03-17T02:08:30.627Z,77.093506
2019-03-17T02:08:42.368Z,77.294922
2019-03-17T02:08:54.148Z,77.398682
2019-03-17T02:09:05.948Z,77.606201
2019-03-17T02:09:17.735Z,77.709961
2019-03-17T02:09:29.499Z,77.606201
2019-03-17T02:09:41.248Z,77.606201
2019-03-17T02:09:53.012Z,77.709961
2019-03-17T02:10:04.786Z,77.911377
2019-03-17T02:10:16.546Z,77.911377
2019-03-17T02:10:28.350Z,77.807617
2019-03-17T02:10:40.213Z,77.911377
2019-03-17T02:10:51.953Z,77.807617
2019-03-17T02:11:03.698Z,77.606201
2019-03-17T02:11:15.479Z,77.502441
2019-03-17T02:11:27.249Z,77.606201
2019-03-17T02:11:38.995Z,77.807617
2019-03-17T02:11:50.762Z,77.807617
2019-03-17T02:12:02.521Z,77.911377
2019-03-17T02:12:14.362Z,77.807617
2019-03-17T02:12:26.108Z,77.709961
2019-03-17T02:12:37.896Z,77.807617
2019-03-17T02:12:49.684Z,77.807617
2019-03-17T02:13:01.465Z,77.709961
2019-03-17T02:13:13.244Z,77.709961
2019-03-17T02:13:25.003Z,77.606201
2019-03-17T02:13:36.773Z,77.606201
2019-03-17T02:13:48.523Z,77.709961
2019-03-17T02:14:00.294Z,77.911377
2019-03-17T02:14:12.059Z,77.911377
2019-03-17T02:14:23.819Z,77.911377
2019-03-17T02:14:35.582Z,78.118896
2019-03-17T02:14:47.343Z,78.222656